sensor_id;sensor_type;location;lat;lon;timestamp;pressure;altitude;pressure_sealevel;temperature
11849;BMP180;5983;49.966;8.052;2023-07-31T00:01:43;100403.00;;;19.60
11849;BMP180;5983;49.966;8.052;2023-07-31T00:04:11;100404.00;;;19.60
11849;BMP180;5983;49.966;8.052;2023-07-31T00:06:38;100405.00;;;19.60
11849;BMP180;5983;49.966;8.052;2023-07-31T00:09:05;100396.00;;;19.60
11849;BMP180;5983;49.966;8.052;2023-07-31T00:11:31;100391.00;;;19.60
11849;BMP180;5983;49.966;8.052;2023-07-31T00:13:58;100389.00;;;19.60
11849;BMP180;5983;49.966;8.052;2023-07-31T00:16:25;100387.00;;;19.60
11849;BMP180;5983;49.966;8.052;2023-07-31T00:18:52;100395.00;;;19.60
11849;BMP180;5983;49.966;8.052;2023-07-31T00:21:20;100391.00;;;19.60
11849;BMP180;5983;49.966;8.052;2023-07-31T00:23:47;100386.00;;;19.60
11849;BMP180;5983;49.966;8.052;2023-07-31T00:26:14;100375.00;;;19.60
11849;BMP180;5983;49.966;8.052;2023-07-31T00:28:40;100380.00;;;19.50
11849;BMP180;5983;49.966;8.052;2023-07-31T00:31:07;100383.00;;;19.50
11849;BMP180;5983;49.966;8.052;2023-07-31T00:33:35;100382.00;;;19.50
11849;BMP180;5983;49.966;8.052;2023-07-31T00:36:02;100381.00;;;19.50
11849;BMP180;5983;49.966;8.052;2023-07-31T00:38:30;100379.00;;;19.50
11849;BMP180;5983;49.966;8.052;2023-07-31T00:40:57;100378.00;;;19.50
11849;BMP180;5983;49.966;8.052;2023-07-31T00:43:24;100380.00;;;19.50
11849;BMP180;5983;49.966;8.052;2023-07-31T00:45:51;100376.00;;;19.50
11849;BMP180;5983;49.966;8.052;2023-07-31T00:48:18;100377.00;;;19.50
11849;BMP180;5983;49.966;8.052;2023-07-31T00:50:45;100381.00;;;19.50
11849;BMP180;5983;49.966;8.052;2023-07-31T00:53:12;100385.00;;;19.40
11849;BMP180;5983;49.966;8.052;2023-07-31T00:55:41;100380.00;;;19.40
11849;BMP180;5983;49.966;8.052;2023-07-31T00:58:08;100382.00;;;19.40
11849;BMP180;5983;49.966;8.052;2023-07-31T01:00:35;100382.00;;;19.40
11849;BMP180;5983;49.966;8.052;2023-07-31T01:03:02;100381.00;;;19.40
11849;BMP180;5983;49.966;8.052;2023-07-31T01:05:35;100382.00;;;19.40
11849;BMP180;5983;49.966;8.052;2023-07-31T01:08:15;100384.00;;;19.40
11849;BMP180;5983;49.966;8.052;2023-07-31T01:10:52;100388.00;;;19.40
11849;BMP180;5983;49.966;8.052;2023-07-31T01:13:21;100384.00;;;19.40
11849;BMP180;5983;49.966;8.052;2023-07-31T01:15:48;100381.00;;;19.40
11849;BMP180;5983;49.966;8.052;2023-07-31T01:18:15;100375.00;;;19.40
11849;BMP180;5983;49.966;8.052;2023-07-31T01:20:42;100385.00;;;19.40
11849;BMP180;5983;49.966;8.052;2023-07-31T01:23:33;100380.00;;;19.40
11849;BMP180;5983;49.966;8.052;2023-07-31T01:26:06;100383.00;;;19.40
11849;BMP180;5983;49.966;8.052;2023-07-31T01:28:46;100372.00;;;19.40
11849;BMP180;5983;49.966;8.052;2023-07-31T01:31:16;100362.00;;;19.40
11849;BMP180;5983;49.966;8.052;2023-07-31T01:33:43;100366.00;;;19.40
11849;BMP180;5983;49.966;8.052;2023-07-31T01:36:11;100363.00;;;19.30
11849;BMP180;5983;49.966;8.052;2023-07-31T01:38:38;100355.00;;;19.30
11849;BMP180;5983;49.966;8.052;2023-07-31T01:41:06;100345.00;;;19.30
11849;BMP180;5983;49.966;8.052;2023-07-31T01:43:33;100341.00;;;19.30
11849;BMP180;5983;49.966;8.052;2023-07-31T01:46:00;100341.00;;;19.30
11849;BMP180;5983;49.966;8.052;2023-07-31T01:48:27;100352.00;;;19.30
11849;BMP180;5983;49.966;8.052;2023-07-31T01:50:53;100353.00;;;19.30
11849;BMP180;5983;49.966;8.052;2023-07-31T01:53:20;100349.00;;;19.30
11849;BMP180;5983;49.966;8.052;2023-07-31T01:55:47;100346.00;;;19.20
11849;BMP180;5983;49.966;8.052;2023-07-31T01:58:15;100350.00;;;19.20
11849;BMP180;5983;49.966;8.052;2023-07-31T02:00:42;100347.00;;;19.20
11849;BMP180;5983;49.966;8.052;2023-07-31T02:03:09;100338.00;;;19.20
11849;BMP180;5983;49.966;8.052;2023-07-31T02:05:35;100334.00;;;19.20
11849;BMP180;5983;49.966;8.052;2023-07-31T02:08:02;100323.00;;;19.20
11849;BMP180;5983;49.966;8.052;2023-07-31T02:10:29;100315.00;;;19.20
11849;BMP180;5983;49.966;8.052;2023-07-31T02:12:56;100319.00;;;19.20
11849;BMP180;5983;49.966;8.052;2023-07-31T02:15:24;100311.00;;;19.20
11849;BMP180;5983;49.966;8.052;2023-07-31T02:17:51;100313.00;;;19.10
11849;BMP180;5983;49.966;8.052;2023-07-31T02:20:18;100322.00;;;19.20
11849;BMP180;5983;49.966;8.052;2023-07-31T02:22:44;100319.00;;;19.10
11849;BMP180;5983;49.966;8.052;2023-07-31T02:25:11;100313.00;;;19.10
11849;BMP180;5983;49.966;8.052;2023-07-31T02:27:38;100306.00;;;19.10
11849;BMP180;5983;49.966;8.052;2023-07-31T02:30:06;100309.00;;;19.10
11849;BMP180;5983;49.966;8.052;2023-07-31T02:32:34;100313.00;;;19.10
11849;BMP180;5983;49.966;8.052;2023-07-31T02:35:01;100318.00;;;19.10
11849;BMP180;5983;49.966;8.052;2023-07-31T02:37:28;100324.00;;;19.10
11849;BMP180;5983;49.966;8.052;2023-07-31T02:39:55;100334.00;;;19.10
11849;BMP180;5983;49.966;8.052;2023-07-31T02:42:22;100341.00;;;19.10
11849;BMP180;5983;49.966;8.052;2023-07-31T02:44:48;100335.00;;;19.10
11849;BMP180;5983;49.966;8.052;2023-07-31T02:47:21;100336.00;;;19.00
11849;BMP180;5983;49.966;8.052;2023-07-31T02:49:49;100339.00;;;19.00
11849;BMP180;5983;49.966;8.052;2023-07-31T02:52:16;100339.00;;;19.10
11849;BMP180;5983;49.966;8.052;2023-07-31T02:54:42;100341.00;;;19.10
11849;BMP180;5983;49.966;8.052;2023-07-31T02:57:09;100341.00;;;19.10
11849;BMP180;5983;49.966;8.052;2023-07-31T02:59:36;100333.00;;;19.00
11849;BMP180;5983;49.966;8.052;2023-07-31T03:02:03;100339.00;;;19.00
11849;BMP180;5983;49.966;8.052;2023-07-31T03:04:30;100334.00;;;19.00
11849;BMP180;5983;49.966;8.052;2023-07-31T03:06:58;100334.00;;;19.00
11849;BMP180;5983;49.966;8.052;2023-07-31T03:09:24;100321.00;;;19.00
11849;BMP180;5983;49.966;8.052;2023-07-31T03:11:51;100325.00;;;19.00
11849;BMP180;5983;49.966;8.052;2023-07-31T03:14:18;100334.00;;;19.00
11849;BMP180;5983;49.966;8.052;2023-07-31T03:16:44;100330.00;;;19.00
11849;BMP180;5983;49.966;8.052;2023-07-31T03:19:11;100330.00;;;19.00
11849;BMP180;5983;49.966;8.052;2023-07-31T03:21:38;100326.00;;;19.00
11849;BMP180;5983;49.966;8.052;2023-07-31T03:24:06;100326.00;;;19.00
11849;BMP180;5983;49.966;8.052;2023-07-31T03:26:33;100326.00;;;19.00
11849;BMP180;5983;49.966;8.052;2023-07-31T03:29:00;100333.00;;;19.00
11849;BMP180;5983;49.966;8.052;2023-07-31T03:31:27;100326.00;;;18.90
11849;BMP180;5983;49.966;8.052;2023-07-31T03:33:54;100321.00;;;18.90
11849;BMP180;5983;49.966;8.052;2023-07-31T03:36:20;100336.00;;;18.80
11849;BMP180;5983;49.966;8.052;2023-07-31T03:38:47;100340.00;;;18.80
11849;BMP180;5983;49.966;8.052;2023-07-31T03:41:15;100334.00;;;18.80
11849;BMP180;5983;49.966;8.052;2023-07-31T03:43:42;100320.00;;;18.70
11849;BMP180;5983;49.966;8.052;2023-07-31T03:46:09;100326.00;;;18.70
11849;BMP180;5983;49.966;8.052;2023-07-31T03:48:35;100325.00;;;18.80
11849;BMP180;5983;49.966;8.052;2023-07-31T03:51:03;100326.00;;;18.70
11849;BMP180;5983;49.966;8.052;2023-07-31T03:53:29;100323.00;;;18.70
11849;BMP180;5983;49.966;8.052;2023-07-31T03:55:56;100318.00;;;18.70
11849;BMP180;5983;49.966;8.052;2023-07-31T03:58:24;100324.00;;;18.70
11849;BMP180;5983;49.966;8.052;2023-07-31T04:00:51;100315.00;;;18.70
11849;BMP180;5983;49.966;8.052;2023-07-31T04:03:18;100313.00;;;18.70
11849;BMP180;5983;49.966;8.052;2023-07-31T04:05:44;100302.00;;;18.60
11849;BMP180;5983;49.966;8.052;2023-07-31T04:08:11;100307.00;;;18.60
11849;BMP180;5983;49.966;8.052;2023-07-31T04:10:38;100295.00;;;18.60
11849;BMP180;5983;49.966;8.052;2023-07-31T04:13:05;100300.00;;;18.60
11849;BMP180;5983;49.966;8.052;2023-07-31T04:15:33;100290.00;;;18.60
11849;BMP180;5983;49.966;8.052;2023-07-31T04:17:59;100288.00;;;18.60
11849;BMP180;5983;49.966;8.052;2023-07-31T04:20:26;100283.00;;;18.60
11849;BMP180;5983;49.966;8.052;2023-07-31T04:22:53;100284.00;;;18.60
11849;BMP180;5983;49.966;8.052;2023-07-31T04:25:19;100278.00;;;18.60
11849;BMP180;5983;49.966;8.052;2023-07-31T04:27:46;100281.00;;;18.60
11849;BMP180;5983;49.966;8.052;2023-07-31T04:30:13;100276.00;;;18.60
11849;BMP180;5983;49.966;8.052;2023-07-31T04:32:41;100273.00;;;18.50
11849;BMP180;5983;49.966;8.052;2023-07-31T04:35:08;100278.00;;;18.50
11849;BMP180;5983;49.966;8.052;2023-07-31T04:37:35;100272.00;;;18.50
11849;BMP180;5983;49.966;8.052;2023-07-31T04:40:01;100278.00;;;18.50
11849;BMP180;5983;49.966;8.052;2023-07-31T04:42:28;100281.00;;;18.50
11849;BMP180;5983;49.966;8.052;2023-07-31T04:44:55;100283.00;;;18.50
11849;BMP180;5983;49.966;8.052;2023-07-31T04:47:22;100278.00;;;18.50
11849;BMP180;5983;49.966;8.052;2023-07-31T04:49:50;100279.00;;;18.50
11849;BMP180;5983;49.966;8.052;2023-07-31T04:52:17;100286.00;;;18.50
11849;BMP180;5983;49.966;8.052;2023-07-31T04:54:43;100278.00;;;18.50
11849;BMP180;5983;49.966;8.052;2023-07-31T04:57:10;100291.00;;;18.50
11849;BMP180;5983;49.966;8.052;2023-07-31T04:59:37;100290.00;;;18.50
11849;BMP180;5983;49.966;8.052;2023-07-31T05:02:04;100278.00;;;18.50
11849;BMP180;5983;49.966;8.052;2023-07-31T05:04:31;100279.00;;;18.50
11849;BMP180;5983;49.966;8.052;2023-07-31T05:06:59;100278.00;;;18.50
11849;BMP180;5983;49.966;8.052;2023-07-31T05:09:26;100269.00;;;18.50
11849;BMP180;5983;49.966;8.052;2023-07-31T05:11:52;100272.00;;;18.50
11849;BMP180;5983;49.966;8.052;2023-07-31T05:14:19;100265.00;;;18.50
11849;BMP180;5983;49.966;8.052;2023-07-31T05:16:46;100261.00;;;18.50
11849;BMP180;5983;49.966;8.052;2023-07-31T05:19:13;100274.00;;;18.50
11849;BMP180;5983;49.966;8.052;2023-07-31T05:21:40;100273.00;;;18.50
11849;BMP180;5983;49.966;8.052;2023-07-31T05:24:08;100269.00;;;18.50
11849;BMP180;5983;49.966;8.052;2023-07-31T05:26:34;100274.00;;;18.60
11849;BMP180;5983;49.966;8.052;2023-07-31T05:29:01;100270.00;;;18.60
11849;BMP180;5983;49.966;8.052;2023-07-31T05:31:28;100269.00;;;18.60
11849;BMP180;5983;49.966;8.052;2023-07-31T05:33:55;100269.00;;;18.70
11849;BMP180;5983;49.966;8.052;2023-07-31T05:36:21;100270.00;;;18.70
11849;BMP180;5983;49.966;8.052;2023-07-31T05:38:48;100277.00;;;18.70
11849;BMP180;5983;49.966;8.052;2023-07-31T05:41:16;100279.00;;;18.70
11849;BMP180;5983;49.966;8.052;2023-07-31T05:43:43;100266.00;;;18.80
11849;BMP180;5983;49.966;8.052;2023-07-31T05:46:11;100262.00;;;18.90
11849;BMP180;5983;49.966;8.052;2023-07-31T05:48:38;100253.00;;;18.90
11849;BMP180;5983;49.966;8.052;2023-07-31T05:51:05;100256.00;;;19.00
11849;BMP180;5983;49.966;8.052;2023-07-31T05:53:32;100244.00;;;19.00
11849;BMP180;5983;49.966;8.052;2023-07-31T05:55:59;100246.00;;;19.10
11849;BMP180;5983;49.966;8.052;2023-07-31T05:58:27;100256.00;;;19.20
11849;BMP180;5983;49.966;8.052;2023-07-31T06:00:54;100249.00;;;19.30
11849;BMP180;5983;49.966;8.052;2023-07-31T06:03:20;100247.00;;;19.40
11849;BMP180;5983;49.966;8.052;2023-07-31T06:05:47;100243.00;;;19.50
11849;BMP180;5983;49.966;8.052;2023-07-31T06:08:14;100246.00;;;19.60
11849;BMP180;5983;49.966;8.052;2023-07-31T06:10:40;100249.00;;;19.80
11849;BMP180;5983;49.966;8.052;2023-07-31T06:13:07;100250.00;;;19.90
11849;BMP180;5983;49.966;8.052;2023-07-31T06:15:35;100240.00;;;20.00
11849;BMP180;5983;49.966;8.052;2023-07-31T06:18:02;100243.00;;;20.00
11849;BMP180;5983;49.966;8.052;2023-07-31T06:20:32;100245.00;;;20.00
11849;BMP180;5983;49.966;8.052;2023-07-31T06:22:59;100245.00;;;20.00
11849;BMP180;5983;49.966;8.052;2023-07-31T06:25:26;100254.00;;;20.10
11849;BMP180;5983;49.966;8.052;2023-07-31T06:27:52;100250.00;;;20.10
11849;BMP180;5983;49.966;8.052;2023-07-31T06:30:19;100250.00;;;20.10
11849;BMP180;5983;49.966;8.052;2023-07-31T06:32:47;100252.00;;;20.20
11849;BMP180;5983;49.966;8.052;2023-07-31T06:35:14;100257.00;;;20.20
11849;BMP180;5983;49.966;8.052;2023-07-31T06:37:41;100255.00;;;20.30
11849;BMP180;5983;49.966;8.052;2023-07-31T06:40:10;100255.00;;;20.40
11849;BMP180;5983;49.966;8.052;2023-07-31T06:42:37;100265.00;;;20.50
11849;BMP180;5983;49.966;8.052;2023-07-31T06:45:04;100263.00;;;20.60
11849;BMP180;5983;49.966;8.052;2023-07-31T06:47:31;100267.00;;;20.70
11849;BMP180;5983;49.966;8.052;2023-07-31T06:49:59;100265.00;;;20.70
11849;BMP180;5983;49.966;8.052;2023-07-31T06:52:26;100249.00;;;20.80
11849;BMP180;5983;49.966;8.052;2023-07-31T06:55:01;100244.00;;;20.90
11849;BMP180;5983;49.966;8.052;2023-07-31T06:57:28;100237.00;;;21.00
11849;BMP180;5983;49.966;8.052;2023-07-31T06:59:55;100231.00;;;21.20
11849;BMP180;5983;49.966;8.052;2023-07-31T07:02:22;100235.00;;;21.20
11849;BMP180;5983;49.966;8.052;2023-07-31T07:04:50;100243.00;;;21.10
11849;BMP180;5983;49.966;8.052;2023-07-31T07:07:18;100245.00;;;21.10
11849;BMP180;5983;49.966;8.052;2023-07-31T07:09:45;100247.00;;;21.10
11849;BMP180;5983;49.966;8.052;2023-07-31T07:12:11;100237.00;;;21.20
11849;BMP180;5983;49.966;8.052;2023-07-31T07:14:38;100242.00;;;21.40
11849;BMP180;5983;49.966;8.052;2023-07-31T07:17:05;100228.00;;;21.60
11849;BMP180;5983;49.966;8.052;2023-07-31T07:19:32;100231.00;;;21.70
11849;BMP180;5983;49.966;8.052;2023-07-31T07:21:59;100224.00;;;21.70
11849;BMP180;5983;49.966;8.052;2023-07-31T07:24:29;100212.00;;;21.70
11849;BMP180;5983;49.966;8.052;2023-07-31T07:26:55;100207.00;;;21.70
11849;BMP180;5983;49.966;8.052;2023-07-31T07:29:22;100219.00;;;21.70
11849;BMP180;5983;49.966;8.052;2023-07-31T07:31:49;100215.00;;;21.60
11849;BMP180;5983;49.966;8.052;2023-07-31T07:34:15;100207.00;;;21.60
11849;BMP180;5983;49.966;8.052;2023-07-31T07:36:42;100213.00;;;21.60
11849;BMP180;5983;49.966;8.052;2023-07-31T07:39:10;100207.00;;;21.60
11849;BMP180;5983;49.966;8.052;2023-07-31T07:41:38;100211.00;;;21.60
11849;BMP180;5983;49.966;8.052;2023-07-31T07:44:05;100211.00;;;21.80
11849;BMP180;5983;49.966;8.052;2023-07-31T07:46:31;100202.00;;;22.00
11849;BMP180;5983;49.966;8.052;2023-07-31T07:48:58;100209.00;;;22.30
11849;BMP180;5983;49.966;8.052;2023-07-31T07:51:25;100212.00;;;22.40
11849;BMP180;5983;49.966;8.052;2023-07-31T07:53:52;100205.00;;;22.50
11849;BMP180;5983;49.966;8.052;2023-07-31T07:56:18;100207.00;;;22.40
11849;BMP180;5983;49.966;8.052;2023-07-31T07:58:49;100193.00;;;22.40
11849;BMP180;5983;49.966;8.052;2023-07-31T08:01:16;100196.00;;;22.30
11849;BMP180;5983;49.966;8.052;2023-07-31T08:03:43;100198.00;;;22.30
11849;BMP180;5983;49.966;8.052;2023-07-31T08:06:10;100186.00;;;22.20
11849;BMP180;5983;49.966;8.052;2023-07-31T08:08:37;100186.00;;;22.10
11849;BMP180;5983;49.966;8.052;2023-07-31T08:11:04;100187.00;;;22.00
11849;BMP180;5983;49.966;8.052;2023-07-31T08:13:31;100176.00;;;21.80
11849;BMP180;5983;49.966;8.052;2023-07-31T08:15:59;100187.00;;;21.60
11849;BMP180;5983;49.966;8.052;2023-07-31T08:18:25;100189.00;;;21.50
11849;BMP180;5983;49.966;8.052;2023-07-31T08:20:52;100178.00;;;21.50
11849;BMP180;5983;49.966;8.052;2023-07-31T08:23:19;100173.00;;;21.40
11849;BMP180;5983;49.966;8.052;2023-07-31T08:25:46;100168.00;;;21.30
11849;BMP180;5983;49.966;8.052;2023-07-31T08:28:15;100162.00;;;21.20
11849;BMP180;5983;49.966;8.052;2023-07-31T08:30:41;100154.00;;;21.20
11849;BMP180;5983;49.966;8.052;2023-07-31T08:33:10;100162.00;;;21.20
11849;BMP180;5983;49.966;8.052;2023-07-31T08:35:36;100169.00;;;21.10
11849;BMP180;5983;49.966;8.052;2023-07-31T08:38:03;100167.00;;;21.10
11849;BMP180;5983;49.966;8.052;2023-07-31T08:40:30;100172.00;;;21.10
11849;BMP180;5983;49.966;8.052;2023-07-31T08:42:57;100168.00;;;21.10
11849;BMP180;5983;49.966;8.052;2023-07-31T08:45:28;100170.00;;;21.10
11849;BMP180;5983;49.966;8.052;2023-07-31T08:47:55;100171.00;;;21.10
11849;BMP180;5983;49.966;8.052;2023-07-31T08:50:25;100164.00;;;21.20
11849;BMP180;5983;49.966;8.052;2023-07-31T08:52:53;100156.00;;;21.30
11849;BMP180;5983;49.966;8.052;2023-07-31T08:55:20;100158.00;;;21.40
11849;BMP180;5983;49.966;8.052;2023-07-31T08:57:50;100152.00;;;21.50
11849;BMP180;5983;49.966;8.052;2023-07-31T09:00:18;100167.00;;;21.60
11849;BMP180;5983;49.966;8.052;2023-07-31T09:02:50;100163.00;;;21.60
11849;BMP180;5983;49.966;8.052;2023-07-31T09:05:18;100160.00;;;21.60
11849;BMP180;5983;49.966;8.052;2023-07-31T09:07:48;100164.00;;;21.70
11849;BMP180;5983;49.966;8.052;2023-07-31T09:10:16;100162.00;;;21.70
11849;BMP180;5983;49.966;8.052;2023-07-31T09:12:42;100163.00;;;21.70
11849;BMP180;5983;49.966;8.052;2023-07-31T09:15:11;100161.00;;;21.70
11849;BMP180;5983;49.966;8.052;2023-07-31T09:17:37;100168.00;;;21.70
11849;BMP180;5983;49.966;8.052;2023-07-31T09:20:14;100152.00;;;21.80
11849;BMP180;5983;49.966;8.052;2023-07-31T09:22:41;100156.00;;;21.90
11849;BMP180;5983;49.966;8.052;2023-07-31T09:25:17;100147.00;;;22.00
11849;BMP180;5983;49.966;8.052;2023-07-31T09:27:46;100136.00;;;22.10
11849;BMP180;5983;49.966;8.052;2023-07-31T09:30:13;100143.00;;;22.20
11849;BMP180;5983;49.966;8.052;2023-07-31T09:32:39;100140.00;;;22.20
11849;BMP180;5983;49.966;8.052;2023-07-31T09:35:13;100131.00;;;22.20
11849;BMP180;5983;49.966;8.052;2023-07-31T09:37:40;100122.00;;;22.20
11849;BMP180;5983;49.966;8.052;2023-07-31T09:40:08;100123.00;;;22.30
11849;BMP180;5983;49.966;8.052;2023-07-31T09:42:36;100120.00;;;22.40
11849;BMP180;5983;49.966;8.052;2023-07-31T09:45:09;100117.00;;;22.50
11849;BMP180;5983;49.966;8.052;2023-07-31T09:47:36;100118.00;;;22.60
11849;BMP180;5983;49.966;8.052;2023-07-31T09:50:07;100121.00;;;22.60
11849;BMP180;5983;49.966;8.052;2023-07-31T09:52:33;100114.00;;;22.60
11849;BMP180;5983;49.966;8.052;2023-07-31T09:55:03;100110.00;;;22.60
11849;BMP180;5983;49.966;8.052;2023-07-31T09:57:31;100111.00;;;22.60
11849;BMP180;5983;49.966;8.052;2023-07-31T10:00:00;100114.00;;;22.60
11849;BMP180;5983;49.966;8.052;2023-07-31T10:02:27;100104.00;;;22.60
11849;BMP180;5983;49.966;8.052;2023-07-31T10:04:57;100108.00;;;22.60
11849;BMP180;5983;49.966;8.052;2023-07-31T10:07:25;100100.00;;;22.60
11849;BMP180;5983;49.966;8.052;2023-07-31T10:12:33;100093.00;;;22.70
11849;BMP180;5983;49.966;8.052;2023-07-31T10:15:01;100105.00;;;22.70
11849;BMP180;5983;49.966;8.052;2023-07-31T10:17:29;100106.00;;;22.80
11849;BMP180;5983;49.966;8.052;2023-07-31T10:19:58;100113.00;;;22.80
11849;BMP180;5983;49.966;8.052;2023-07-31T10:22:25;100106.00;;;22.90
11849;BMP180;5983;49.966;8.052;2023-07-31T10:24:54;100117.00;;;22.90
11849;BMP180;5983;49.966;8.052;2023-07-31T10:27:21;100109.00;;;22.80
11849;BMP180;5983;49.966;8.052;2023-07-31T10:29:48;100101.00;;;22.80
11849;BMP180;5983;49.966;8.052;2023-07-31T10:32:18;100102.00;;;22.70
11849;BMP180;5983;49.966;8.052;2023-07-31T10:34:45;100098.00;;;22.70
11849;BMP180;5983;49.966;8.052;2023-07-31T10:37:19;100099.00;;;22.70
11849;BMP180;5983;49.966;8.052;2023-07-31T10:39:55;100094.00;;;22.70
11849;BMP180;5983;49.966;8.052;2023-07-31T10:42:28;100089.00;;;22.70
11849;BMP180;5983;49.966;8.052;2023-07-31T10:44:57;100105.00;;;22.60
11849;BMP180;5983;49.966;8.052;2023-07-31T10:47:25;100086.00;;;22.60
11849;BMP180;5983;49.966;8.052;2023-07-31T10:49:51;100081.00;;;22.60
11849;BMP180;5983;49.966;8.052;2023-07-31T10:52:20;100091.00;;;22.70
11849;BMP180;5983;49.966;8.052;2023-07-31T10:54:49;100075.00;;;22.80
11849;BMP180;5983;49.966;8.052;2023-07-31T10:57:20;100073.00;;;22.90
11849;BMP180;5983;49.966;8.052;2023-07-31T10:59:48;100080.00;;;23.00
11849;BMP180;5983;49.966;8.052;2023-07-31T11:02:26;100078.00;;;23.20
11849;BMP180;5983;49.966;8.052;2023-07-31T11:05:08;100065.00;;;23.10
11849;BMP180;5983;49.966;8.052;2023-07-31T11:07:49;100075.00;;;23.30
11849;BMP180;5983;49.966;8.052;2023-07-31T11:10:17;100056.00;;;23.20
11849;BMP180;5983;49.966;8.052;2023-07-31T11:12:45;100061.00;;;23.20
11849;BMP180;5983;49.966;8.052;2023-07-31T11:15:11;100075.00;;;23.20
11849;BMP180;5983;49.966;8.052;2023-07-31T11:17:40;100066.00;;;23.20
11849;BMP180;5983;49.966;8.052;2023-07-31T11:20:08;100061.00;;;23.20
11849;BMP180;5983;49.966;8.052;2023-07-31T11:22:35;100069.00;;;23.30
11849;BMP180;5983;49.966;8.052;2023-07-31T11:25:02;100075.00;;;23.40
11849;BMP180;5983;49.966;8.052;2023-07-31T11:27:30;100064.00;;;23.60
11849;BMP180;5983;49.966;8.052;2023-07-31T11:30:00;100064.00;;;23.60
11849;BMP180;5983;49.966;8.052;2023-07-31T11:32:27;100050.00;;;23.60
11849;BMP180;5983;49.966;8.052;2023-07-31T11:34:55;100055.00;;;23.70
11849;BMP180;5983;49.966;8.052;2023-07-31T11:37:22;100066.00;;;23.70
11849;BMP180;5983;49.966;8.052;2023-07-31T11:39:59;100061.00;;;23.80
11849;BMP180;5983;49.966;8.052;2023-07-31T11:42:26;100052.00;;;23.80
11849;BMP180;5983;49.966;8.052;2023-07-31T11:44:52;100055.00;;;23.70
11849;BMP180;5983;49.966;8.052;2023-07-31T11:47:19;100053.00;;;23.60
11849;BMP180;5983;49.966;8.052;2023-07-31T11:49:46;100051.00;;;23.50
11849;BMP180;5983;49.966;8.052;2023-07-31T11:52:15;100045.00;;;23.30
11849;BMP180;5983;49.966;8.052;2023-07-31T11:54:43;100046.00;;;23.10
11849;BMP180;5983;49.966;8.052;2023-07-31T11:57:09;100050.00;;;23.00
11849;BMP180;5983;49.966;8.052;2023-07-31T11:59:37;100054.00;;;22.80
11849;BMP180;5983;49.966;8.052;2023-07-31T12:02:05;100057.00;;;22.70
11849;BMP180;5983;49.966;8.052;2023-07-31T12:04:32;100051.00;;;22.70
11849;BMP180;5983;49.966;8.052;2023-07-31T12:07:00;100043.00;;;22.60
11849;BMP180;5983;49.966;8.052;2023-07-31T12:09:28;100036.00;;;22.50
11849;BMP180;5983;49.966;8.052;2023-07-31T12:11:55;100032.00;;;22.50
11849;BMP180;5983;49.966;8.052;2023-07-31T12:14:23;100023.00;;;22.50
11849;BMP180;5983;49.966;8.052;2023-07-31T12:16:54;100022.00;;;22.60
11849;BMP180;5983;49.966;8.052;2023-07-31T12:19:21;100011.00;;;22.70
11849;BMP180;5983;49.966;8.052;2023-07-31T12:21:48;100016.00;;;22.90
11849;BMP180;5983;49.966;8.052;2023-07-31T12:24:14;100014.00;;;23.00
11849;BMP180;5983;49.966;8.052;2023-07-31T12:26:45;100010.00;;;23.10
11849;BMP180;5983;49.966;8.052;2023-07-31T12:29:12;100009.00;;;23.30
11849;BMP180;5983;49.966;8.052;2023-07-31T12:31:41;99992.00;;;23.50
11849;BMP180;5983;49.966;8.052;2023-07-31T12:34:15;99995.00;;;23.80
11849;BMP180;5983;49.966;8.052;2023-07-31T12:36:42;99993.00;;;24.10
11849;BMP180;5983;49.966;8.052;2023-07-31T12:39:09;99994.00;;;24.20
11849;BMP180;5983;49.966;8.052;2023-07-31T12:41:36;99998.00;;;24.40
11849;BMP180;5983;49.966;8.052;2023-07-31T12:44:04;100005.00;;;24.50
11849;BMP180;5983;49.966;8.052;2023-07-31T12:46:30;100001.00;;;24.50
11849;BMP180;5983;49.966;8.052;2023-07-31T12:48:57;100000.00;;;24.50
11849;BMP180;5983;49.966;8.052;2023-07-31T12:51:24;100004.00;;;24.60
11849;BMP180;5983;49.966;8.052;2023-07-31T12:53:51;100002.00;;;24.70
11849;BMP180;5983;49.966;8.052;2023-07-31T12:56:17;99999.00;;;24.80
11849;BMP180;5983;49.966;8.052;2023-07-31T12:58:44;99991.00;;;24.90
11849;BMP180;5983;49.966;8.052;2023-07-31T13:01:12;99983.00;;;24.80
11849;BMP180;5983;49.966;8.052;2023-07-31T13:03:39;99984.00;;;24.80
11849;BMP180;5983;49.966;8.052;2023-07-31T13:06:06;99974.00;;;24.80
11849;BMP180;5983;49.966;8.052;2023-07-31T13:08:32;99969.00;;;24.90
11849;BMP180;5983;49.966;8.052;2023-07-31T13:10:59;99968.00;;;24.90
11849;BMP180;5983;49.966;8.052;2023-07-31T13:13:26;99973.00;;;24.80
11849;BMP180;5983;49.966;8.052;2023-07-31T13:15:52;99983.00;;;24.80
11849;BMP180;5983;49.966;8.052;2023-07-31T13:18:20;99987.00;;;24.80
11849;BMP180;5983;49.966;8.052;2023-07-31T13:20:47;99986.00;;;24.60
11849;BMP180;5983;49.966;8.052;2023-07-31T13:23:14;99981.00;;;24.50
11849;BMP180;5983;49.966;8.052;2023-07-31T13:25:41;99976.00;;;24.30
11849;BMP180;5983;49.966;8.052;2023-07-31T13:28:08;99973.00;;;24.10
11849;BMP180;5983;49.966;8.052;2023-07-31T13:30:38;99983.00;;;23.90
11849;BMP180;5983;49.966;8.052;2023-07-31T13:33:04;99991.00;;;23.70
11849;BMP180;5983;49.966;8.052;2023-07-31T13:35:32;99979.00;;;23.50
11849;BMP180;5983;49.966;8.052;2023-07-31T13:37:59;99981.00;;;23.40
11849;BMP180;5983;49.966;8.052;2023-07-31T13:40:26;99989.00;;;23.30
11849;BMP180;5983;49.966;8.052;2023-07-31T13:42:53;99991.00;;;23.20
11849;BMP180;5983;49.966;8.052;2023-07-31T13:45:20;99996.00;;;23.10
11849;BMP180;5983;49.966;8.052;2023-07-31T13:47:46;99989.00;;;22.90
11849;BMP180;5983;49.966;8.052;2023-07-31T13:50:13;99991.00;;;22.90
11849;BMP180;5983;49.966;8.052;2023-07-31T13:52:43;99988.00;;;22.70
11849;BMP180;5983;49.966;8.052;2023-07-31T13:55:09;99989.00;;;22.70
11849;BMP180;5983;49.966;8.052;2023-07-31T13:57:36;99976.00;;;22.60
11849;BMP180;5983;49.966;8.052;2023-07-31T14:00:03;99979.00;;;22.60
11849;BMP180;5983;49.966;8.052;2023-07-31T14:02:30;99981.00;;;22.60
11849;BMP180;5983;49.966;8.052;2023-07-31T14:04:57;99975.00;;;22.50
11849;BMP180;5983;49.966;8.052;2023-07-31T14:07:24;99981.00;;;22.50
11849;BMP180;5983;49.966;8.052;2023-07-31T14:09:52;99970.00;;;22.50
11849;BMP180;5983;49.966;8.052;2023-07-31T14:12:19;99953.00;;;22.50
11849;BMP180;5983;49.966;8.052;2023-07-31T14:14:45;99941.00;;;22.50